sensor_id;sensor_type;location;lat;lon;timestamp;temperature;humidity
4964;DHT22;2497;47.410;9.740;2023-03-14T00:00:31;11.10;99.90
4964;DHT22;2497;47.410;9.740;2023-03-14T00:02:58;11.00;99.90
4964;DHT22;2497;47.410;9.740;2023-03-14T00:05:27;10.90;99.90
4964;DHT22;2497;47.410;9.740;2023-03-14T00:07:54;10.80;99.90
4964;DHT22;2497;47.410;9.740;2023-03-14T00:10:21;10.70;99.90
4964;DHT22;2497;47.410;9.740;2023-03-14T00:12:48;10.40;99.90
4964;DHT22;2497;47.410;9.740;2023-03-14T00:15:15;10.20;99.90
4964;DHT22;2497;47.410;9.740;2023-03-14T00:17:44;10.10;99.90
4964;DHT22;2497;47.410;9.740;2023-03-14T00:20:12;10.00;99.90
4964;DHT22;2497;47.410;9.740;2023-03-14T00:22:39;9.90;99.90
4964;DHT22;2497;47.410;9.740;2023-03-14T00:25:08;9.80;99.90
4964;DHT22;2497;47.410;9.740;2023-03-14T00:27:36;9.80;99.90
4964;DHT22;2497;47.410;9.740;2023-03-14T00:30:04;9.80;99.90
4964;DHT22;2497;47.410;9.740;2023-03-14T00:32:33;9.70;99.90
4964;DHT22;2497;47.410;9.740;2023-03-14T00:35:02;9.60;99.90
4964;DHT22;2497;47.410;9.740;2023-03-14T00:37:30;9.60;99.90
4964;DHT22;2497;47.410;9.740;2023-03-14T00:39:57;9.50;99.90
4964;DHT22;2497;47.410;9.740;2023-03-14T00:42:24;9.60;99.90
4964;DHT22;2497;47.410;9.740;2023-03-14T00:44:51;9.60;99.90
4964;DHT22;2497;47.410;9.740;2023-03-14T00:47:18;9.60;99.90
4964;DHT22;2497;47.410;9.740;2023-03-14T00:49:45;9.50;99.90
4964;DHT22;2497;47.410;9.740;2023-03-14T00:52:14;9.50;99.90
4964;DHT22;2497;47.410;9.740;2023-03-14T00:54:41;9.40;99.90
4964;DHT22;2497;47.410;9.740;2023-03-14T00:57:08;9.30;99.90
4964;DHT22;2497;47.410;9.740;2023-03-14T00:59:35;9.20;99.90
4964;DHT22;2497;47.410;9.740;2023-03-14T01:02:02;9.20;99.90
4964;DHT22;2497;47.410;9.740;2023-03-14T01:04:29;9.10;99.90
4964;DHT22;2497;47.410;9.740;2023-03-14T01:06:57;9.10;99.90
4964;DHT22;2497;47.410;9.740;2023-03-14T01:09:25;9.00;99.90
4964;DHT22;2497;47.410;9.740;2023-03-14T01:11:52;9.00;99.90
4964;DHT22;2497;47.410;9.740;2023-03-14T01:14:19;8.90;99.90
4964;DHT22;2497;47.410;9.740;2023-03-14T01:16:46;8.80;99.90
4964;DHT22;2497;47.410;9.740;2023-03-14T01:19:14;8.80;99.90
4964;DHT22;2497;47.410;9.740;2023-03-14T01:21:41;8.70;99.90
4964;DHT22;2497;47.410;9.740;2023-03-14T01:24:11;8.70;99.90
4964;DHT22;2497;47.410;9.740;2023-03-14T01:26:39;8.70;99.90
4964;DHT22;2497;47.410;9.740;2023-03-14T01:29:06;8.70;99.90
4964;DHT22;2497;47.410;9.740;2023-03-14T01:31:34;8.60;99.90
4964;DHT22;2497;47.410;9.740;2023-03-14T01:34:01;8.60;99.90
4964;DHT22;2497;47.410;9.740;2023-03-14T01:36:28;8.60;99.90
4964;DHT22;2497;47.410;9.740;2023-03-14T01:38:55;8.50;99.90
4964;DHT22;2497;47.410;9.740;2023-03-14T01:41:24;8.60;99.90
4964;DHT22;2497;47.410;9.740;2023-03-14T01:43:53;8.60;99.90
4964;DHT22;2497;47.410;9.740;2023-03-14T01:46:30;8.60;99.90
4964;DHT22;2497;47.410;9.740;2023-03-14T01:49:06;8.60;99.90
4964;DHT22;2497;47.410;9.740;2023-03-14T01:51:38;8.50;99.90
4964;DHT22;2497;47.410;9.740;2023-03-14T01:54:12;8.50;99.90
4964;DHT22;2497;47.410;9.740;2023-03-14T01:56:42;8.50;99.90
4964;DHT22;2497;47.410;9.740;2023-03-14T01:59:12;8.60;99.90
4964;DHT22;2497;47.410;9.740;2023-03-14T02:01:42;8.50;99.90
4964;DHT22;2497;47.410;9.740;2023-03-14T02:04:10;8.50;99.90
4964;DHT22;2497;47.410;9.740;2023-03-14T02:06:47;8.50;99.90
4964;DHT22;2497;47.410;9.740;2023-03-14T02:09:16;8.50;99.90
4964;DHT22;2497;47.410;9.740;2023-03-14T02:11:43;8.50;99.90
4964;DHT22;2497;47.410;9.740;2023-03-14T02:14:24;8.50;99.90
4964;DHT22;2497;47.410;9.740;2023-03-14T02:16:52;8.40;99.90
4964;DHT22;2497;47.410;9.740;2023-03-14T02:19:30;8.50;99.90
4964;DHT22;2497;47.410;9.740;2023-03-14T02:22:06;8.40;99.90
4964;DHT22;2497;47.410;9.740;2023-03-14T02:24:40;8.50;99.90
4964;DHT22;2497;47.410;9.740;2023-03-14T02:27:13;8.40;99.90
4964;DHT22;2497;47.410;9.740;2023-03-14T02:29:45;8.40;99.90
4964;DHT22;2497;47.410;9.740;2023-03-14T02:32:15;8.40;99.90
4964;DHT22;2497;47.410;9.740;2023-03-14T02:34:45;8.40;99.90
4964;DHT22;2497;47.410;9.740;2023-03-14T02:37:13;8.40;99.90
4964;DHT22;2497;47.410;9.740;2023-03-14T02:39:44;8.40;99.90
4964;DHT22;2497;47.410;9.740;2023-03-14T02:42:13;8.30;99.90
4964;DHT22;2497;47.410;9.740;2023-03-14T02:44:59;8.30;99.90
4964;DHT22;2497;47.410;9.740;2023-03-14T02:47:29;8.20;99.90
4964;DHT22;2497;47.410;9.740;2023-03-14T02:50:00;8.20;99.90
4964;DHT22;2497;47.410;9.740;2023-03-14T02:52:28;8.20;99.90
4964;DHT22;2497;47.410;9.740;2023-03-14T02:54:55;8.20;99.90
4964;DHT22;2497;47.410;9.740;2023-03-14T02:57:24;8.10;99.90
4964;DHT22;2497;47.410;9.740;2023-03-14T02:59:51;8.10;99.90
4964;DHT22;2497;47.410;9.740;2023-03-14T03:02:18;8.10;99.90
4964;DHT22;2497;47.410;9.740;2023-03-14T03:04:45;8.00;99.90
4964;DHT22;2497;47.410;9.740;2023-03-14T03:07:12;8.10;99.90
4964;DHT22;2497;47.410;9.740;2023-03-14T03:09:39;8.10;99.90
4964;DHT22;2497;47.410;9.740;2023-03-14T03:12:07;8.20;99.90
4964;DHT22;2497;47.410;9.740;2023-03-14T03:14:35;8.20;99.90
4964;DHT22;2497;47.410;9.740;2023-03-14T03:17:03;8.20;99.90
4964;DHT22;2497;47.410;9.740;2023-03-14T03:19:30;8.20;99.90
4964;DHT22;2497;47.410;9.740;2023-03-14T03:21:57;8.20;99.90
4964;DHT22;2497;47.410;9.740;2023-03-14T03:24:25;8.20;99.90
4964;DHT22;2497;47.410;9.740;2023-03-14T03:26:52;8.30;99.90
4964;DHT22;2497;47.410;9.740;2023-03-14T03:29:20;8.30;99.90
4964;DHT22;2497;47.410;9.740;2023-03-14T03:31:48;8.30;99.90
4964;DHT22;2497;47.410;9.740;2023-03-14T03:34:15;8.20;99.90
4964;DHT22;2497;47.410;9.740;2023-03-14T03:36:42;8.20;99.90
4964;DHT22;2497;47.410;9.740;2023-03-14T03:39:10;8.20;99.90
4964;DHT22;2497;47.410;9.740;2023-03-14T03:41:37;8.20;99.90
4964;DHT22;2497;47.410;9.740;2023-03-14T03:44:04;8.10;99.90
4964;DHT22;2497;47.410;9.740;2023-03-14T03:46:32;8.10;99.90
4964;DHT22;2497;47.410;9.740;2023-03-14T03:49:01;8.10;99.90
4964;DHT22;2497;47.410;9.740;2023-03-14T03:51:28;8.10;99.90
4964;DHT22;2497;47.410;9.740;2023-03-14T03:53:56;8.10;99.90
4964;DHT22;2497;47.410;9.740;2023-03-14T03:56:23;8.20;99.90
4964;DHT22;2497;47.410;9.740;2023-03-14T03:58:50;8.20;99.90
4964;DHT22;2497;47.410;9.740;2023-03-14T04:01:17;8.20;99.90
4964;DHT22;2497;47.410;9.740;2023-03-14T04:03:45;8.20;99.90
4964;DHT22;2497;47.410;9.740;2023-03-14T04:06:13;8.20;99.90
4964;DHT22;2497;47.410;9.740;2023-03-14T04:08:41;8.10;99.90
4964;DHT22;2497;47.410;9.740;2023-03-14T04:11:09;8.10;99.90
4964;DHT22;2497;47.410;9.740;2023-03-14T04:13:36;8.20;99.90
4964;DHT22;2497;47.410;9.740;2023-03-14T04:16:08;8.20;99.90
4964;DHT22;2497;47.410;9.740;2023-03-14T04:18:36;8.20;99.90
4964;DHT22;2497;47.410;9.740;2023-03-14T04:21:04;8.20;99.90
4964;DHT22;2497;47.410;9.740;2023-03-14T04:23:32;8.20;99.90
4964;DHT22;2497;47.410;9.740;2023-03-14T04:25:59;8.20;99.90
4964;DHT22;2497;47.410;9.740;2023-03-14T04:28:27;8.20;99.90
4964;DHT22;2497;47.410;9.740;2023-03-14T04:30:54;8.10;99.90
4964;DHT22;2497;47.410;9.740;2023-03-14T04:33:22;8.10;99.90
4964;DHT22;2497;47.410;9.740;2023-03-14T04:35:53;8.10;99.90
4964;DHT22;2497;47.410;9.740;2023-03-14T04:38:20;8.20;99.90
4964;DHT22;2497;47.410;9.740;2023-03-14T04:40:49;8.10;99.90
4964;DHT22;2497;47.410;9.740;2023-03-14T04:43:16;8.10;99.90
4964;DHT22;2497;47.410;9.740;2023-03-14T04:45:43;8.10;99.90
4964;DHT22;2497;47.410;9.740;2023-03-14T04:48:11;8.00;99.90
4964;DHT22;2497;47.410;9.740;2023-03-14T04:50:38;8.00;99.90
4964;DHT22;2497;47.410;9.740;2023-03-14T04:53:05;8.00;99.90
4964;DHT22;2497;47.410;9.740;2023-03-14T04:55:33;7.90;99.90
4964;DHT22;2497;47.410;9.740;2023-03-14T04:58:01;8.00;99.90
4964;DHT22;2497;47.410;9.740;2023-03-14T05:00:29;8.00;99.90
4964;DHT22;2497;47.410;9.740;2023-03-14T05:02:56;8.00;99.90
4964;DHT22;2497;47.410;9.740;2023-03-14T05:05:23;8.00;99.90
4964;DHT22;2497;47.410;9.740;2023-03-14T05:07:50;7.90;99.90
4964;DHT22;2497;47.410;9.740;2023-03-14T05:10:17;7.90;99.90
4964;DHT22;2497;47.410;9.740;2023-03-14T05:12:44;7.90;99.90
4964;DHT22;2497;47.410;9.740;2023-03-14T05:15:15;8.00;99.90
4964;DHT22;2497;47.410;9.740;2023-03-14T05:17:42;7.90;99.90
4964;DHT22;2497;47.410;9.740;2023-03-14T05:20:10;8.10;99.90
4964;DHT22;2497;47.410;9.740;2023-03-14T05:22:38;8.10;99.90
4964;DHT22;2497;47.410;9.740;2023-03-14T05:25:06;8.10;99.90
4964;DHT22;2497;47.410;9.740;2023-03-14T05:27:34;8.10;99.90
4964;DHT22;2497;47.410;9.740;2023-03-14T05:30:01;8.10;99.90
4964;DHT22;2497;47.410;9.740;2023-03-14T05:32:30;8.00;99.90
4964;DHT22;2497;47.410;9.740;2023-03-14T05:34:57;7.90;99.90
4964;DHT22;2497;47.410;9.740;2023-03-14T05:37:25;7.80;99.90
4964;DHT22;2497;47.410;9.740;2023-03-14T05:39:52;7.80;99.90
4964;DHT22;2497;47.410;9.740;2023-03-14T05:42:19;7.80;99.90
4964;DHT22;2497;47.410;9.740;2023-03-14T05:44:46;7.80;99.90
4964;DHT22;2497;47.410;9.740;2023-03-14T05:47:14;7.80;99.90
4964;DHT22;2497;47.410;9.740;2023-03-14T05:49:42;7.80;99.90
4964;DHT22;2497;47.410;9.740;2023-03-14T05:52:09;7.80;99.90
4964;DHT22;2497;47.410;9.740;2023-03-14T05:54:37;7.80;99.90
4964;DHT22;2497;47.410;9.740;2023-03-14T05:57:04;7.80;99.90
4964;DHT22;2497;47.410;9.740;2023-03-14T05:59:31;7.80;99.90
4964;DHT22;2497;47.410;9.740;2023-03-14T06:01:58;7.80;99.90
4964;DHT22;2497;47.410;9.740;2023-03-14T06:04:26;7.80;99.90
4964;DHT22;2497;47.410;9.740;2023-03-14T06:06:55;7.90;99.90
4964;DHT22;2497;47.410;9.740;2023-03-14T06:09:22;7.80;99.90
4964;DHT22;2497;47.410;9.740;2023-03-14T06:11:49;7.80;99.90
4964;DHT22;2497;47.410;9.740;2023-03-14T06:14:16;7.80;99.90
4964;DHT22;2497;47.410;9.740;2023-03-14T06:16:44;7.80;99.90
4964;DHT22;2497;47.410;9.740;2023-03-14T06:19:13;7.80;99.90
4964;DHT22;2497;47.410;9.740;2023-03-14T06:21:40;7.90;99.90
4964;DHT22;2497;47.410;9.740;2023-03-14T06:24:09;7.90;99.90
4964;DHT22;2497;47.410;9.740;2023-03-14T06:26:36;7.90;99.90
4964;DHT22;2497;47.410;9.740;2023-03-14T06:29:03;7.80;99.90
4964;DHT22;2497;47.410;9.740;2023-03-14T06:31:31;7.80;99.90
4964;DHT22;2497;47.410;9.740;2023-03-14T06:33:58;7.90;99.90
4964;DHT22;2497;47.410;9.740;2023-03-14T06:36:25;7.80;99.90
4964;DHT22;2497;47.410;9.740;2023-03-14T06:38:52;7.90;99.90
4964;DHT22;2497;47.410;9.740;2023-03-14T06:41:20;7.80;99.90
4964;DHT22;2497;47.410;9.740;2023-03-14T06:43:49;7.70;99.90
4964;DHT22;2497;47.410;9.740;2023-03-14T06:46:16;7.80;99.90
4964;DHT22;2497;47.410;9.740;2023-03-14T06:48:43;7.70;99.90
4964;DHT22;2497;47.410;9.740;2023-03-14T06:51:11;7.80;99.90
4964;DHT22;2497;47.410;9.740;2023-03-14T06:53:38;7.80;99.90
4964;DHT22;2497;47.410;9.740;2023-03-14T06:56:06;7.90;99.90
4964;DHT22;2497;47.410;9.740;2023-03-14T06:58:34;7.90;99.90
4964;DHT22;2497;47.410;9.740;2023-03-14T07:01:01;8.00;99.90
4964;DHT22;2497;47.410;9.740;2023-03-14T07:03:29;8.00;99.90
4964;DHT22;2497;47.410;9.740;2023-03-14T07:05:56;8.00;99.90
4964;DHT22;2497;47.410;9.740;2023-03-14T07:08:23;8.10;99.90
4964;DHT22;2497;47.410;9.740;2023-03-14T07:10:50;8.10;99.90
4964;DHT22;2497;47.410;9.740;2023-03-14T07:13:19;8.30;99.90
4964;DHT22;2497;47.410;9.740;2023-03-14T07:15:48;8.30;99.90
4964;DHT22;2497;47.410;9.740;2023-03-14T07:18:15;8.30;99.90
4964;DHT22;2497;47.410;9.740;2023-03-14T07:20:42;8.30;99.90
4964;DHT22;2497;47.410;9.740;2023-03-14T07:23:11;8.30;99.90
4964;DHT22;2497;47.410;9.740;2023-03-14T07:25:38;8.30;99.90
4964;DHT22;2497;47.410;9.740;2023-03-14T07:28:05;8.20;99.90
4964;DHT22;2497;47.410;9.740;2023-03-14T07:30:32;8.30;99.90
4964;DHT22;2497;47.410;9.740;2023-03-14T07:33:01;8.40;99.90
4964;DHT22;2497;47.410;9.740;2023-03-14T07:35:28;8.40;99.90
4964;DHT22;2497;47.410;9.740;2023-03-14T07:37:55;8.60;99.90
4964;DHT22;2497;47.410;9.740;2023-03-14T07:40:22;8.70;99.90
4964;DHT22;2497;47.410;9.740;2023-03-14T07:42:49;8.90;99.90
4964;DHT22;2497;47.410;9.740;2023-03-14T07:45:17;8.90;99.90
4964;DHT22;2497;47.410;9.740;2023-03-14T07:47:44;8.90;99.90
4964;DHT22;2497;47.410;9.740;2023-03-14T07:50:12;8.90;99.90
4964;DHT22;2497;47.410;9.740;2023-03-14T07:52:39;8.80;99.90
4964;DHT22;2497;47.410;9.740;2023-03-14T07:55:07;9.00;99.90
4964;DHT22;2497;47.410;9.740;2023-03-14T07:57:34;9.20;99.90
4964;DHT22;2497;47.410;9.740;2023-03-14T08:00:01;9.20;99.90
4964;DHT22;2497;47.410;9.740;2023-03-14T08:02:30;9.20;99.90
4964;DHT22;2497;47.410;9.740;2023-03-14T08:04:58;9.30;99.90
4964;DHT22;2497;47.410;9.740;2023-03-14T08:07:26;9.40;99.90
4964;DHT22;2497;47.410;9.740;2023-03-14T08:09:53;9.50;99.90
4964;DHT22;2497;47.410;9.740;2023-03-14T08:12:20;9.40;99.90
4964;DHT22;2497;47.410;9.740;2023-03-14T08:14:47;9.50;99.90
4964;DHT22;2497;47.410;9.740;2023-03-14T08:17:14;9.40;99.90
4964;DHT22;2497;47.410;9.740;2023-03-14T08:19:41;9.30;99.90
4964;DHT22;2497;47.410;9.740;2023-03-14T08:22:09;9.30;99.90
4964;DHT22;2497;47.410;9.740;2023-03-14T08:24:37;9.20;99.90
4964;DHT22;2497;47.410;9.740;2023-03-14T08:27:04;9.40;99.90
4964;DHT22;2497;47.410;9.740;2023-03-14T08:29:31;9.60;99.90
4964;DHT22;2497;47.410;9.740;2023-03-14T08:31:58;9.80;99.90
4964;DHT22;2497;47.410;9.740;2023-03-14T08:34:25;9.80;99.90
4964;DHT22;2497;47.410;9.740;2023-03-14T08:36:53;9.90;99.90
4964;DHT22;2497;47.410;9.740;2023-03-14T08:39:22;10.00;99.90
4964;DHT22;2497;47.410;9.740;2023-03-14T08:41:51;10.10;99.90
4964;DHT22;2497;47.410;9.740;2023-03-14T08:44:18;10.20;99.90
4964;DHT22;2497;47.410;9.740;2023-03-14T08:46:45;10.50;99.90
4964;DHT22;2497;47.410;9.740;2023-03-14T08:49:13;10.30;99.90
4964;DHT22;2497;47.410;9.740;2023-03-14T08:51:40;10.60;99.90
4964;DHT22;2497;47.410;9.740;2023-03-14T08:54:10;10.90;99.90
4964;DHT22;2497;47.410;9.740;2023-03-14T08:56:37;11.30;99.90
4964;DHT22;2497;47.410;9.740;2023-03-14T08:59:06;11.70;99.90
4964;DHT22;2497;47.410;9.740;2023-03-14T09:01:33;11.90;99.90
4964;DHT22;2497;47.410;9.740;2023-03-14T09:04:00;11.70;99.90
4964;DHT22;2497;47.410;9.740;2023-03-14T09:06:27;11.80;99.90
4964;DHT22;2497;47.410;9.740;2023-03-14T09:08:55;11.80;99.90
4964;DHT22;2497;47.410;9.740;2023-03-14T09:11:22;11.80;99.90
4964;DHT22;2497;47.410;9.740;2023-03-14T09:13:49;11.60;99.90
4964;DHT22;2497;47.410;9.740;2023-03-14T09:16:17;11.80;99.90
4964;DHT22;2497;47.410;9.740;2023-03-14T09:18:44;12.10;99.90
4964;DHT22;2497;47.410;9.740;2023-03-14T09:21:11;12.10;99.90
4964;DHT22;2497;47.410;9.740;2023-03-14T09:23:39;12.00;99.90
4964;DHT22;2497;47.410;9.740;2023-03-14T09:26:06;11.90;99.90
4964;DHT22;2497;47.410;9.740;2023-03-14T09:28:33;12.00;99.90
4964;DHT22;2497;47.410;9.740;2023-03-14T09:31:05;11.90;99.90
4964;DHT22;2497;47.410;9.740;2023-03-14T09:33:35;11.80;99.90
4964;DHT22;2497;47.410;9.740;2023-03-14T09:36:03;11.90;99.90
4964;DHT22;2497;47.410;9.740;2023-03-14T09:38:30;11.90;99.90
4964;DHT22;2497;47.410;9.740;2023-03-14T09:40:59;11.90;99.90
4964;DHT22;2497;47.410;9.740;2023-03-14T09:43:30;12.20;99.90
4964;DHT22;2497;47.410;9.740;2023-03-14T09:45:59;12.50;99.90
4964;DHT22;2497;47.410;9.740;2023-03-14T09:48:29;12.60;99.90
4964;DHT22;2497;47.410;9.740;2023-03-14T09:51:01;12.80;99.90
4964;DHT22;2497;47.410;9.740;2023-03-14T09:53:37;12.80;99.90
4964;DHT22;2497;47.410;9.740;2023-03-14T09:56:12;12.90;99.90
4964;DHT22;2497;47.410;9.740;2023-03-14T09:58:42;12.80;99.90
4964;DHT22;2497;47.410;9.740;2023-03-14T10:01:13;12.70;99.90
4964;DHT22;2497;47.410;9.740;2023-03-14T10:03:42;12.50;99.90
4964;DHT22;2497;47.410;9.740;2023-03-14T10:06:14;12.40;99.90
4964;DHT22;2497;47.410;9.740;2023-03-14T10:08:42;12.40;99.90
4964;DHT22;2497;47.410;9.740;2023-03-14T10:11:15;12.40;99.90
4964;DHT22;2497;47.410;9.740;2023-03-14T10:14:05;12.40;99.90
4964;DHT22;2497;47.410;9.740;2023-03-14T10:16:34;12.50;99.90
4964;DHT22;2497;47.410;9.740;2023-03-14T10:19:03;12.40;99.90
4964;DHT22;2497;47.410;9.740;2023-03-14T10:21:37;12.30;99.90
4964;DHT22;2497;47.410;9.740;2023-03-14T10:24:10;12.30;99.90
4964;DHT22;2497;47.410;9.740;2023-03-14T10:26:43;12.20;99.90
4964;DHT22;2497;47.410;9.740;2023-03-14T10:29:12;12.10;99.90
4964;DHT22;2497;47.410;9.740;2023-03-14T10:31:49;12.10;99.90
4964;DHT22;2497;47.410;9.740;2023-03-14T10:34:20;12.20;99.90
4964;DHT22;2497;47.410;9.740;2023-03-14T10:36:55;12.10;99.90
4964;DHT22;2497;47.410;9.740;2023-03-14T10:39:32;12.20;99.90
4964;DHT22;2497;47.410;9.740;2023-03-14T10:42:06;12.20;99.90
4964;DHT22;2497;47.410;9.740;2023-03-14T10:44:39;12.10;99.90
4964;DHT22;2497;47.410;9.740;2023-03-14T10:47:12;12.10;99.90
4964;DHT22;2497;47.410;9.740;2023-03-14T10:49:41;11.90;99.90
4964;DHT22;2497;47.410;9.740;2023-03-14T10:52:20;11.90;99.90
4964;DHT22;2497;47.410;9.740;2023-03-14T10:54:54;11.90;99.90
4964;DHT22;2497;47.410;9.740;2023-03-14T10:57:21;11.90;99.90
4964;DHT22;2497;47.410;9.740;2023-03-14T10:59:49;12.00;99.90
4964;DHT22;2497;47.410;9.740;2023-03-14T11:02:43;11.90;99.90
4964;DHT22;2497;47.410;9.740;2023-03-14T11:05:24;11.90;99.90
4964;DHT22;2497;47.410;9.740;2023-03-14T11:08:00;12.00;99.90
4964;DHT22;2497;47.410;9.740;2023-03-14T11:10:32;11.90;99.90
4964;DHT22;2497;47.410;9.740;2023-03-14T11:13:11;11.90;99.90
4964;DHT22;2497;47.410;9.740;2023-03-14T11:15:45;11.90;99.90
4964;DHT22;2497;47.410;9.740;2023-03-14T11:18:48;12.00;99.90
4964;DHT22;2497;47.410;9.740;2023-03-14T11:21:21;12.00;99.90
4964;DHT22;2497;47.410;9.740;2023-03-14T11:24:00;12.00;99.90
4964;DHT22;2497;47.410;9.740;2023-03-14T11:26:36;12.00;99.90
4964;DHT22;2497;47.410;9.740;2023-03-14T11:29:15;12.00;99.90
4964;DHT22;2497;47.410;9.740;2023-03-14T11:31:46;12.00;99.90
4964;DHT22;2497;47.410;9.740;2023-03-14T11:34:16;11.90;99.90
4964;DHT22;2497;47.410;9.740;2023-03-14T11:36:48;11.90;99.90
4964;DHT22;2497;47.410;9.740;2023-03-14T11:39:19;12.10;99.90
4964;DHT22;2497;47.410;9.740;2023-03-14T11:41:48;12.00;99.90
4964;DHT22;2497;47.410;9.740;2023-03-14T11:44:19;12.00;99.90
4964;DHT22;2497;47.410;9.740;2023-03-14T11:46:50;12.00;99.90
4964;DHT22;2497;47.410;9.740;2023-03-14T11:49:27;12.00;99.90
4964;DHT22;2497;47.410;9.740;2023-03-14T11:52:00;12.00;99.90
4964;DHT22;2497;47.410;9.740;2023-03-14T11:54:35;12.00;99.90
4964;DHT22;2497;47.410;9.740;2023-03-14T11:57:12;12.00;99.90
4964;DHT22;2497;47.410;9.740;2023-03-14T11:59:47;12.00;99.90
4964;DHT22;2497;47.410;9.740;2023-03-14T12:02:22;12.00;99.90
4964;DHT22;2497;47.410;9.740;2023-03-14T12:05:14;12.00;99.90
4964;DHT22;2497;47.410;9.740;2023-03-14T12:07:52;11.80;99.90
4964;DHT22;2497;47.410;9.740;2023-03-14T12:10:27;11.90;99.90
4964;DHT22;2497;47.410;9.740;2023-03-14T12:12:54;11.90;99.90
4964;DHT22;2497;47.410;9.740;2023-03-14T12:15:22;11.90;99.90
4964;DHT22;2497;47.410;9.740;2023-03-14T12:17:54;11.50;99.90
4964;DHT22;2497;47.410;9.740;2023-03-14T12:20:22;11.30;99.90
4964;DHT22;2497;47.410;9.740;2023-03-14T12:22:51;10.90;99.90
4964;DHT22;2497;47.410;9.740;2023-03-14T12:25:20;10.70;99.90
4964;DHT22;2497;47.410;9.740;2023-03-14T12:28:04;10.50;99.90
4964;DHT22;2497;47.410;9.740;2023-03-14T12:30:33;10.20;99.90
4964;DHT22;2497;47.410;9.740;2023-03-14T12:36:04;9.90;99.90
4964;DHT22;2497;47.410;9.740;2023-03-14T12:38:52;9.70;99.90
4964;DHT22;2497;47.410;9.740;2023-03-14T12:41:26;9.40;99.90
4964;DHT22;2497;47.410;9.740;2023-03-14T12:43:56;9.20;99.90
4964;DHT22;2497;47.410;9.740;2023-03-14T12:46:25;9.00;99.90
4964;DHT22;2497;47.410;9.740;2023-03-14T12:49:03;8.90;99.90
4964;DHT22;2497;47.410;9.740;2023-03-14T12:51:36;8.90;99.90
4964;DHT22;2497;47.410;9.740;2023-03-14T12:54:27;8.90;99.90
4964;DHT22;2497;47.410;9.740;2023-03-14T12:57:14;8.80;99.90
4964;DHT22;2497;47.410;9.740;2023-03-14T12:59:50;8.70;99.90
4964;DHT22;2497;47.410;9.740;2023-03-14T13:02:23;8.80;99.90
4964;DHT22;2497;47.410;9.740;2023-03-14T13:04:52;8.80;99.90
4964;DHT22;2497;47.410;9.740;2023-03-14T13:07:36;8.70;99.90
4964;DHT22;2497;47.410;9.740;2023-03-14T13:10:23;8.50;99.90
4964;DHT22;2497;47.410;9.740;2023-03-14T13:12:52;8.50;99.90
4964;DHT22;2497;47.410;9.740;2023-03-14T13:15:30;8.50;99.90
4964;DHT22;2497;47.410;9.740;2023-03-14T13:18:02;8.40;99.90
4964;DHT22;2497;47.410;9.740;2023-03-14T13:20:32;8.30;99.90
4964;DHT22;2497;47.410;9.740;2023-03-14T13:23:01;8.30;99.90
4964;DHT22;2497;47.410;9.740;2023-03-14T13:25:33;8.40;99.90
4964;DHT22;2497;47.410;9.740;2023-03-14T13:28:01;8.40;99.90
4964;DHT22;2497;47.410;9.740;2023-03-14T13:30:38;8.50;99.90
4964;DHT22;2497;47.410;9.740;2023-03-14T13:33:06;8.60;99.90
4964;DHT22;2497;47.410;9.740;2023-03-14T13:35:40;8.70;99.90
4964;DHT22;2497;47.410;9.740;2023-03-14T13:38:16;8.60;99.90
4964;DHT22;2497;47.410;9.740;2023-03-14T13:40:45;8.70;99.90
4964;DHT22;2497;47.410;9.740;2023-03-14T13:43:16;8.80;99.90
4964;DHT22;2497;47.410;9.740;2023-03-14T13:45:53;8.80;99.90
4964;DHT22;2497;47.410;9.740;2023-03-14T13:48:25;8.90;99.90
4964;DHT22;2497;47.410;9.740;2023-03-14T13:50:55;9.10;99.90
4964;DHT22;2497;47.410;9.740;2023-03-14T13:53:23;9.20;99.90
4964;DHT22;2497;47.410;9.740;2023-03-14T13:55:51;9.20;99.90
4964;DHT22;2497;47.410;9.740;2023-03-14T13:58:24;9.20;99.90
4964;DHT22;2497;47.410;9.740;2023-03-14T14:01:02;9.20;99.90
4964;DHT22;2497;47.410;9.740;2023-03-14T14:03:32;9.20;99.90
4964;DHT22;2497;47.410;9.740;2023-03-14T14:06:00;9.20;99.90
4964;DHT22;2497;47.410;9.740;2023-03-14T14:08:28;9.20;99.90
4964;DHT22;2497;47.410;9.740;2023-03-14T14:10:59;9.20;99.90
4964;DHT22;2497;47.410;9.740;2023-03-14T14:13:31;9.20;99.90
4964;DHT22;2497;47.410;9.740;2023-03-14T14:16:02;9.10;99.90
4964;DHT22;2497;47.410;9.740;2023-03-14T14:18:31;8.90;99.90
4964;DHT22;2497;47.410;9.740;2023-03-14T14:20:59;8.70;99.90
4964;DHT22;2497;47.410;9.740;2023-03-14T14:23:28;8.30;99.90
4964;DHT22;2497;47.410;9.740;2023-03-14T14:25:57;8.10;99.90
4964;DHT22;2497;47.410;9.740;2023-03-14T14:28:28;8.00;99.90
4964;DHT22;2497;47.410;9.740;2023-03-14T14:31:06;7.80;99.90
4964;DHT22;2497;47.410;9.740;2023-03-14T14:33:44;7.60;99.90
4964;DHT22;2497;47.410;9.740;2023-03-14T14:36:18;7.50;99.90
4964;DHT22;2497;47.410;9.740;2023-03-14T14:38:50;7.40;99.90
4964;DHT22;2497;47.410;9.740;2023-03-14T14:41:17;7.30;99.90
4964;DHT22;2497;47.410;9.740;2023-03-14T14:43:45;7.30;99.90
4964;DHT22;2497;47.410;9.740;2023-03-14T14:46:17;7.20;99.90
4964;DHT22;2497;47.410;9.740;2023-03-14T14:48:45;7.20;99.90
4964;DHT22;2497;47.410;9.740;2023-03-14T14:51:24;7.30;99.90
4964;DHT22;2497;47.410;9.740;2023-03-14T14:56:48;7.40;99.90
4964;DHT22;2497;47.410;9.740;2023-03-14T14:59:22;7.40;99.90
4964;DHT22;2497;47.410;9.740;2023-03-14T15:01:55;7.40;99.90
4964;DHT22;2497;47.410;9.740;2023-03-14T15:04:23;7.50;99.90
4964;DHT22;2497;47.410;9.740;2023-03-14T15:06:50;7.50;99.90
4964;DHT22;2497;47.410;9.740;2023-03-14T15:09:20;7.50;99.90
4964;DHT22;2497;47.410;9.740;2023-03-14T15:11:47;7.50;99.90
4964;DHT22;2497;47.410;9.740;2023-03-14T15:14:14;7.50;99.90
4964;DHT22;2497;47.410;9.740;2023-03-14T15:16:42;7.50;99.90
4964;DHT22;2497;47.410;9.740;2023-03-14T15:19:15;7.40;99.90
4964;DHT22;2497;47.410;9.740;2023-03-14T15:21:43;7.50;99.90
4964;DHT22;2497;47.410;9.740;2023-03-14T15:24:10;7.40;99.90
4964;DHT22;2497;47.410;9.740;2023-03-14T15:26:38;7.20;99.90
4964;DHT22;2497;47.410;9.740;2023-03-14T15:29:05;7.00;99.90
4964;DHT22;2497;47.410;9.740;2023-03-14T15:31:34;6.80;99.90
4964;DHT22;2497;47.410;9.740;2023-03-14T15:34:02;6.80;99.90
4964;DHT22;2497;47.410;9.740;2023-03-14T15:36:32;6.70;99.90
4964;DHT22;2497;47.410;9.740;2023-03-14T15:39:01;6.60;99.90
4964;DHT22;2497;47.410;9.740;2023-03-14T15:41:28;6.50;99.90
4964;DHT22;2497;47.410;9.740;2023-03-14T15:43:55;6.40;99.90
4964;DHT22;2497;47.410;9.740;2023-03-14T15:46:23;6.20;99.90
4964;DHT22;2497;47.410;9.740;2023-03-14T15:48:51;6.10;99.90
4964;DHT22;2497;47.410;9.740;2023-03-14T15:51:18;6.00;99.90
4964;DHT22;2497;47.410;9.740;2023-03-14T15:53:47;5.90;99.90
4964;DHT22;2497;47.410;9.740;2023-03-14T15:56:15;5.90;99.90
4964;DHT22;2497;47.410;9.740;2023-03-14T15:58:43;5.90;99.90
4964;DHT22;2497;47.410;9.740;2023-03-14T16:01:15;5.90;99.90
4964;DHT22;2497;47.410;9.740;2023-03-14T16:03:42;5.90;99.90
4964;DHT22;2497;47.410;9.740;2023-03-14T16:06:11;5.90;99.90
4964;DHT22;2497;47.410;9.740;2023-03-14T16:08:41;6.00;99.90
4964;DHT22;2497;47.410;9.740;2023-03-14T16:11:17;6.10;99.90
4964;DHT22;2497;47.410;9.740;2023-03-14T16:13:46;6.10;99.90
4964;DHT22;2497;47.410;9.740;2023-03-14T16:16:14;6.10;99.90
4964;DHT22;2497;47.410;9.740;2023-03-14T16:18:41;6.10;99.90
4964;DHT22;2497;47.410;9.740;2023-03-14T16:21:13;6.00;99.90
4964;DHT22;2497;47.410;9.740;2023-03-14T16:23:41;6.00;99.90
4964;DHT22;2497;47.410;9.740;2023-03-14T16:26:15;6.10;99.90
4964;DHT22;2497;47.410;9.740;2023-03-14T16:28:44;6.10;99.90
4964;DHT22;2497;47.410;9.740;2023-03-14T16:31:14;6.10;99.90
4964;DHT22;2497;47.410;9.740;2023-03-14T16:33:42;6.10;99.90
4964;DHT22;2497;47.410;9.740;2023-03-14T16:36:11;6.00;99.90